sensor_id;sensor_type;location;lat;lon;timestamp;pressure;altitude;pressure_sealevel;temperature;humidity
19795;BME280;10057;59.402;17.866;2023-03-21T00:00:43;100940.25;;;1.26;82.27
19795;BME280;10057;59.402;17.866;2023-03-21T00:03:11;100947.25;;;1.32;82.29
19795;BME280;10057;59.402;17.866;2023-03-21T00:05:41;100947.22;;;1.33;82.09
19795;BME280;10057;59.402;17.866;2023-03-21T00:08:08;100943.78;;;1.34;81.97
19795;BME280;10057;59.402;17.866;2023-03-21T00:10:35;100948.09;;;1.25;81.74
19795;BME280;10057;59.402;17.866;2023-03-21T00:13:10;100936.66;;;1.06;81.89
19795;BME280;10057;59.402;17.866;2023-03-21T00:15:39;100930.50;;;0.91;81.95
19795;BME280;10057;59.402;17.866;2023-03-21T00:18:30;100928.69;;;0.81;82.53
19795;BME280;10057;59.402;17.866;2023-03-21T00:20:58;100934.75;;;0.74;82.64
19795;BME280;10057;59.402;17.866;2023-03-21T00:23:46;100931.25;;;0.66;82.87
19795;BME280;10057;59.402;17.866;2023-03-21T00:26:13;100932.09;;;0.63;83.06
19795;BME280;10057;59.402;17.866;2023-03-21T00:28:41;100930.31;;;0.61;82.99
19795;BME280;10057;59.402;17.866;2023-03-21T00:31:09;100923.34;;;0.61;82.84
19795;BME280;10057;59.402;17.866;2023-03-21T00:33:36;100931.22;;;0.67;83.14
19795;BME280;10057;59.402;17.866;2023-03-21T00:36:06;100928.66;;;0.75;83.15
19795;BME280;10057;59.402;17.866;2023-03-21T00:38:33;100921.69;;;0.71;82.83
19795;BME280;10057;59.402;17.866;2023-03-21T00:41:04;100929.50;;;0.66;82.78
19795;BME280;10057;59.402;17.866;2023-03-21T00:43:48;100931.22;;;0.63;82.95
19795;BME280;10057;59.402;17.866;2023-03-21T00:46:17;100921.66;;;0.62;83.18
19795;BME280;10057;59.402;17.866;2023-03-21T00:48:44;100925.16;;;0.65;83.36
19795;BME280;10057;59.402;17.866;2023-03-21T00:51:13;100916.44;;;0.71;83.55
19795;BME280;10057;59.402;17.866;2023-03-21T00:53:41;100930.41;;;0.73;83.29
19795;BME280;10057;59.402;17.866;2023-03-21T00:56:08;100922.56;;;0.68;83.22
19795;BME280;10057;59.402;17.866;2023-03-21T00:58:35;100932.09;;;0.62;83.16
19795;BME280;10057;59.402;17.866;2023-03-21T01:01:02;100927.72;;;0.59;83.29
19795;BME280;10057;59.402;17.866;2023-03-21T01:03:29;100932.91;;;0.58;83.21
19795;BME280;10057;59.402;17.866;2023-03-21T01:05:56;100918.97;;;0.54;83.30
19795;BME280;10057;59.402;17.866;2023-03-21T01:08:33;100928.56;;;0.55;83.58
19795;BME280;10057;59.402;17.866;2023-03-21T01:11:19;100932.03;;;0.56;83.41
19795;BME280;10057;59.402;17.866;2023-03-21T01:13:46;100933.72;;;0.51;83.16
19795;BME280;10057;59.402;17.866;2023-03-21T01:16:25;100933.72;;;0.47;83.66
19795;BME280;10057;59.402;17.866;2023-03-21T01:18:52;100936.28;;;0.43;83.47
19795;BME280;10057;59.402;17.866;2023-03-21T01:21:19;100941.47;;;0.37;83.58
19795;BME280;10057;59.402;17.866;2023-03-21T01:23:46;100946.66;;;0.32;83.65
19795;BME280;10057;59.402;17.866;2023-03-21T01:26:14;100944.91;;;0.31;83.84
19795;BME280;10057;59.402;17.866;2023-03-21T01:28:41;100947.53;;;0.31;83.92
19795;BME280;10057;59.402;17.866;2023-03-21T01:31:11;100957.06;;;0.29;83.95
19795;BME280;10057;59.402;17.866;2023-03-21T01:33:38;100948.31;;;0.22;83.71
19795;BME280;10057;59.402;17.866;2023-03-21T01:36:05;100950.94;;;0.21;83.75
19795;BME280;10057;59.402;17.866;2023-03-21T01:38:40;100957.81;;;0.14;83.72
19795;BME280;10057;59.402;17.866;2023-03-21T01:41:15;100951.69;;;0.09;83.71
19795;BME280;10057;59.402;17.866;2023-03-21T01:43:45;100956.88;;;0.05;83.71
19795;BME280;10057;59.402;17.866;2023-03-21T01:49:22;100951.63;;;0.06;83.97
19795;BME280;10057;59.402;17.866;2023-03-21T01:51:58;100949.97;;;0.11;84.15
19795;BME280;10057;59.402;17.866;2023-03-21T01:54:38;100952.59;;;0.16;84.14
19795;BME280;10057;59.402;17.866;2023-03-21T01:57:15;100943.06;;;0.18;84.04
19795;BME280;10057;59.402;17.866;2023-03-21T01:59:44;100955.28;;;0.22;83.87
19795;BME280;10057;59.402;17.866;2023-03-21T02:02:25;100955.28;;;0.22;83.80
19795;BME280;10057;59.402;17.866;2023-03-21T02:04:52;100951.75;;;0.18;83.85
19795;BME280;10057;59.402;17.866;2023-03-21T02:07:27;100960.47;;;0.17;83.94
19795;BME280;10057;59.402;17.866;2023-03-21T02:09:55;100955.25;;;0.20;83.81
19795;BME280;10057;59.402;17.866;2023-03-21T02:12:21;100960.53;;;0.25;84.13
19795;BME280;10057;59.402;17.866;2023-03-21T02:14:49;100961.41;;;0.30;84.06
19795;BME280;10057;59.402;17.866;2023-03-21T02:17:39;100962.34;;;0.37;84.23
19795;BME280;10057;59.402;17.866;2023-03-21T02:22:49;100961.50;;;0.38;83.90
19795;BME280;10057;59.402;17.866;2023-03-21T02:25:40;100963.25;;;0.40;84.24
19795;BME280;10057;59.402;17.866;2023-03-21T02:28:28;100966.75;;;0.42;84.16
19795;BME280;10057;59.402;17.866;2023-03-21T02:31:04;100969.34;;;0.42;84.23
19795;BME280;10057;59.402;17.866;2023-03-21T02:36:54;100972.75;;;0.34;84.01
19795;BME280;10057;59.402;17.866;2023-03-21T02:39:28;100970.16;;;0.32;84.06
19795;BME280;10057;59.402;17.866;2023-03-21T02:42:19;100969.28;;;0.33;84.24
19795;BME280;10057;59.402;17.866;2023-03-21T02:45:08;100971.88;;;0.33;84.13
19795;BME280;10057;59.402;17.866;2023-03-21T02:47:49;100968.41;;;0.31;84.15
19795;BME280;10057;59.402;17.866;2023-03-21T02:50:42;100962.38;;;0.38;84.46
19795;BME280;10057;59.402;17.866;2023-03-21T02:53:13;100968.50;;;0.43;84.42
19795;BME280;10057;59.402;17.866;2023-03-21T02:55:42;100968.53;;;0.50;84.29
19795;BME280;10057;59.402;17.866;2023-03-21T02:58:14;100977.25;;;0.55;84.19
19795;BME280;10057;59.402;17.866;2023-03-21T03:00:43;100965.94;;;0.54;84.22
19795;BME280;10057;59.402;17.866;2023-03-21T03:03:11;100979.06;;;0.59;83.98
19795;BME280;10057;59.402;17.866;2023-03-21T03:05:58;100984.22;;;0.50;83.92
19795;BME280;10057;59.402;17.866;2023-03-21T03:08:55;100978.88;;;0.37;83.98
19795;BME280;10057;59.402;17.866;2023-03-21T03:11:37;100981.50;;;0.34;84.16
19795;BME280;10057;59.402;17.866;2023-03-21T03:17:21;100979.69;;;0.30;83.99
19795;BME280;10057;59.402;17.866;2023-03-21T03:25:18;100971.94;;;0.38;84.31
19795;BME280;10057;59.402;17.866;2023-03-21T03:28:07;100985.91;;;0.41;84.34
19795;BME280;10057;59.402;17.866;2023-03-21T03:30:35;100981.56;;;0.46;84.50
19795;BME280;10057;59.402;17.866;2023-03-21T03:33:12;100985.91;;;0.47;84.46
19795;BME280;10057;59.402;17.866;2023-03-21T03:35:43;100989.44;;;0.50;84.21
19795;BME280;10057;59.402;17.866;2023-03-21T03:38:20;100990.28;;;0.45;84.13
19795;BME280;10057;59.402;17.866;2023-03-21T03:40:54;100991.94;;;0.37;84.15
19795;BME280;10057;59.402;17.866;2023-03-21T03:43:30;100996.25;;;0.34;84.10
19795;BME280;10057;59.402;17.866;2023-03-21T03:46:08;100991.03;;;0.32;84.53
19795;BME280;10057;59.402;17.866;2023-03-21T03:48:48;101003.16;;;0.26;84.23
19795;BME280;10057;59.402;17.866;2023-03-21T03:51:39;100999.66;;;0.25;84.40
19795;BME280;10057;59.402;17.866;2023-03-21T03:54:12;101003.16;;;0.24;84.50
19795;BME280;10057;59.402;17.866;2023-03-21T03:56:39;101000.50;;;0.22;84.45
19795;BME280;10057;59.402;17.866;2023-03-21T03:59:06;100997.03;;;0.23;84.50
19795;BME280;10057;59.402;17.866;2023-03-21T04:01:33;100996.13;;;0.20;84.43
19795;BME280;10057;59.402;17.866;2023-03-21T04:04:00;101004.81;;;0.17;84.50
19795;BME280;10057;59.402;17.866;2023-03-21T04:06:38;100999.53;;;0.13;84.51
19795;BME280;10057;59.402;17.866;2023-03-21T04:09:05;101002.19;;;0.14;84.69
19795;BME280;10057;59.402;17.866;2023-03-21T04:11:46;101004.78;;;0.16;84.72
19795;BME280;10057;59.402;17.866;2023-03-21T04:14:13;101000.44;;;0.15;84.67
19795;BME280;10057;59.402;17.866;2023-03-21T04:16:41;100993.50;;;0.18;84.68
19795;BME280;10057;59.402;17.866;2023-03-21T04:19:07;100992.72;;;0.24;84.99
19795;BME280;10057;59.402;17.866;2023-03-21T04:21:34;101001.47;;;0.34;84.69
19795;BME280;10057;59.402;17.866;2023-03-21T04:24:02;100995.44;;;0.41;84.74
19795;BME280;10057;59.402;17.866;2023-03-21T04:26:28;101002.44;;;0.45;84.60
19795;BME280;10057;59.402;17.866;2023-03-21T04:28:59;100998.91;;;0.40;84.43
19795;BME280;10057;59.402;17.866;2023-03-21T04:31:30;101003.22;;;0.36;84.34
19795;BME280;10057;59.402;17.866;2023-03-21T04:34:01;101012.78;;;0.33;84.48
19795;BME280;10057;59.402;17.866;2023-03-21T04:36:28;101017.94;;;0.25;84.58
19795;BME280;10057;59.402;17.866;2023-03-21T04:39:05;101018.78;;;0.22;84.45
19795;BME280;10057;59.402;17.866;2023-03-21T04:41:42;101018.78;;;0.21;84.59
19795;BME280;10057;59.402;17.866;2023-03-21T04:44:10;101016.94;;;0.12;84.16
19795;BME280;10057;59.402;17.866;2023-03-21T04:46:38;101022.03;;;0.02;84.21
19795;BME280;10057;59.402;17.866;2023-03-21T04:49:05;101028.94;;;-0.04;84.65
19795;BME280;10057;59.402;17.866;2023-03-21T04:51:33;101025.44;;;-0.06;84.80
19795;BME280;10057;59.402;17.866;2023-03-21T04:54:00;101031.56;;;-0.02;84.81
19795;BME280;10057;59.402;17.866;2023-03-21T04:56:28;101035.03;;;-0.06;84.61
19795;BME280;10057;59.402;17.866;2023-03-21T04:59:02;101033.22;;;-0.12;84.80
19795;BME280;10057;59.402;17.866;2023-03-21T05:01:29;101032.28;;;-0.17;84.36
19795;BME280;10057;59.402;17.866;2023-03-21T05:04:00;101034.00;;;-0.19;84.60
19795;BME280;10057;59.402;17.866;2023-03-21T05:06:28;101034.91;;;-0.15;85.06
19795;BME280;10057;59.402;17.866;2023-03-21T05:08:56;101038.41;;;-0.13;84.89
19795;BME280;10057;59.402;17.866;2023-03-21T05:11:27;101035.81;;;-0.12;84.86
19795;BME280;10057;59.402;17.866;2023-03-21T05:13:57;101039.31;;;-0.10;84.65
19795;BME280;10057;59.402;17.866;2023-03-21T05:16:24;101036.72;;;-0.08;84.73
19795;BME280;10057;59.402;17.866;2023-03-21T05:18:52;101035.03;;;-0.06;85.04
19795;BME280;10057;59.402;17.866;2023-03-21T05:21:21;101037.66;;;-0.02;85.21
19795;BME280;10057;59.402;17.866;2023-03-21T05:23:48;101028.16;;;0.05;85.13
19795;BME280;10057;59.402;17.866;2023-03-21T05:26:21;101030.00;;;0.14;85.09
19795;BME280;10057;59.402;17.866;2023-03-21T05:28:51;101024.78;;;0.17;84.86
19795;BME280;10057;59.402;17.866;2023-03-21T05:31:18;101029.22;;;0.21;84.84
19795;BME280;10057;59.402;17.866;2023-03-21T05:33:46;101030.97;;;0.25;85.04
19795;BME280;10057;59.402;17.866;2023-03-21T05:36:14;101021.41;;;0.27;84.84
19795;BME280;10057;59.402;17.866;2023-03-21T05:38:41;101028.38;;;0.25;84.77
19795;BME280;10057;59.402;17.866;2023-03-21T05:41:15;101024.00;;;0.21;84.63
19795;BME280;10057;59.402;17.866;2023-03-21T05:43:44;101029.25;;;0.24;85.09
19795;BME280;10057;59.402;17.866;2023-03-21T05:46:11;101034.47;;;0.27;84.92
19795;BME280;10057;59.402;17.866;2023-03-21T05:48:38;101026.63;;;0.27;84.73
19795;BME280;10057;59.402;17.866;2023-03-21T05:51:05;101035.38;;;0.29;85.06
19795;BME280;10057;59.402;17.866;2023-03-21T05:53:32;101036.28;;;0.31;85.22
19795;BME280;10057;59.402;17.866;2023-03-21T05:55:58;101031.88;;;0.29;85.16
19795;BME280;10057;59.402;17.866;2023-03-21T05:58:25;101033.63;;;0.28;84.98
19795;BME280;10057;59.402;17.866;2023-03-21T06:00:51;101032.75;;;0.31;84.98
19795;BME280;10057;59.402;17.866;2023-03-21T06:03:18;101039.81;;;0.38;85.43
19795;BME280;10057;59.402;17.866;2023-03-21T06:05:45;101038.97;;;0.42;85.28
19795;BME280;10057;59.402;17.866;2023-03-21T06:08:11;101039.88;;;0.45;85.09
19795;BME280;10057;59.402;17.866;2023-03-21T06:10:38;101045.13;;;0.49;85.10
19795;BME280;10057;59.402;17.866;2023-03-21T06:13:05;101045.13;;;0.49;85.26
19795;BME280;10057;59.402;17.866;2023-03-21T06:15:32;101043.34;;;0.47;84.98
19795;BME280;10057;59.402;17.866;2023-03-21T06:17:58;101046.00;;;0.49;85.23
19795;BME280;10057;59.402;17.866;2023-03-21T06:20:25;101048.66;;;0.57;85.37
19795;BME280;10057;59.402;17.866;2023-03-21T06:22:52;101045.28;;;0.67;85.32
19795;BME280;10057;59.402;17.866;2023-03-21T06:25:18;101045.31;;;0.75;85.22
19795;BME280;10057;59.402;17.866;2023-03-21T06:27:46;101043.63;;;0.81;85.00
19795;BME280;10057;59.402;17.866;2023-03-21T06:30:13;101045.41;;;0.88;85.21
19795;BME280;10057;59.402;17.866;2023-03-21T06:32:40;101049.84;;;0.92;84.90
19795;BME280;10057;59.402;17.866;2023-03-21T06:35:07;101044.56;;;0.91;84.88
19795;BME280;10057;59.402;17.866;2023-03-21T06:37:34;101040.25;;;0.94;85.35
19795;BME280;10057;59.402;17.866;2023-03-21T06:40:00;101041.19;;;1.03;84.99
19795;BME280;10057;59.402;17.866;2023-03-21T06:42:27;101044.66;;;1.05;85.05
19795;BME280;10057;59.402;17.866;2023-03-21T06:44:55;101042.00;;;0.99;84.89
19795;BME280;10057;59.402;17.866;2023-03-21T06:47:22;101047.22;;;0.99;84.72
19795;BME280;10057;59.402;17.866;2023-03-21T06:49:48;101047.22;;;0.94;84.93
19795;BME280;10057;59.402;17.866;2023-03-21T06:52:15;101048.06;;;0.91;85.00
19795;BME280;10057;59.402;17.866;2023-03-21T06:54:41;101046.34;;;0.95;85.53
19795;BME280;10057;59.402;17.866;2023-03-21T06:57:08;101058.56;;;0.99;85.56
19795;BME280;10057;59.402;17.866;2023-03-21T06:59:35;101044.69;;;1.03;85.37
19795;BME280;10057;59.402;17.866;2023-03-21T07:02:02;101045.59;;;1.10;85.28
19795;BME280;10057;59.402;17.866;2023-03-21T07:04:28;101051.66;;;1.07;84.78
19795;BME280;10057;59.402;17.866;2023-03-21T07:06:55;101047.25;;;1.02;85.02
19795;BME280;10057;59.402;17.866;2023-03-21T07:09:22;101056.81;;;0.98;84.82
19795;BME280;10057;59.402;17.866;2023-03-21T07:11:53;101052.44;;;0.92;84.99
19795;BME280;10057;59.402;17.866;2023-03-21T07:14:20;101047.19;;;0.89;85.28
19795;BME280;10057;59.402;17.866;2023-03-21T07:16:46;101051.56;;;0.93;85.52
19795;BME280;10057;59.402;17.866;2023-03-21T07:19:13;101051.66;;;1.03;85.77
19795;BME280;10057;59.402;17.866;2023-03-21T07:21:41;101047.31;;;1.09;85.64
19795;BME280;10057;59.402;17.866;2023-03-21T07:24:07;101047.38;;;1.17;85.31
19795;BME280;10057;59.402;17.866;2023-03-21T07:26:34;101041.25;;;1.13;84.68
19795;BME280;10057;59.402;17.866;2023-03-21T07:29:01;101046.41;;;1.06;84.75
19795;BME280;10057;59.402;17.866;2023-03-21T07:31:27;101051.63;;;1.00;85.09
19795;BME280;10057;59.402;17.866;2023-03-21T07:33:55;101053.31;;;0.94;84.94
19795;BME280;10057;59.402;17.866;2023-03-21T07:36:21;101060.31;;;0.97;85.48
19795;BME280;10057;59.402;17.866;2023-03-21T07:38:48;101064.69;;;1.00;85.81
19795;BME280;10057;59.402;17.866;2023-03-21T07:41:15;101073.44;;;1.08;85.87
19795;BME280;10057;59.402;17.866;2023-03-21T07:43:46;101076.03;;;1.09;85.46
19795;BME280;10057;59.402;17.866;2023-03-21T07:46:13;101073.44;;;1.06;85.63
19795;BME280;10057;59.402;17.866;2023-03-21T07:48:40;101082.19;;;1.10;85.64
19795;BME280;10057;59.402;17.866;2023-03-21T07:51:06;101073.47;;;1.12;85.50
19795;BME280;10057;59.402;17.866;2023-03-21T07:53:33;101072.63;;;1.16;85.54
19795;BME280;10057;59.402;17.866;2023-03-21T07:55:59;101070.03;;;1.16;85.35
19795;BME280;10057;59.402;17.866;2023-03-21T07:58:26;101077.00;;;1.22;85.57
19795;BME280;10057;59.402;17.866;2023-03-21T08:00:54;101068.34;;;1.29;85.60
19795;BME280;10057;59.402;17.866;2023-03-21T08:03:23;101073.56;;;1.29;85.61
19795;BME280;10057;59.402;17.866;2023-03-21T08:05:51;101077.06;;;1.27;85.45
19795;BME280;10057;59.402;17.866;2023-03-21T08:08:18;101086.59;;;1.22;85.15
19795;BME280;10057;59.402;17.866;2023-03-21T08:10:45;101083.97;;;1.18;85.46
19795;BME280;10057;59.402;17.866;2023-03-21T08:13:11;101090.09;;;1.21;85.72
19795;BME280;10057;59.402;17.866;2023-03-21T08:15:38;101092.72;;;1.25;85.68
19795;BME280;10057;59.402;17.866;2023-03-21T08:18:08;101084.06;;;1.32;86.00
19795;BME280;10057;59.402;17.866;2023-03-21T08:20:36;101091.94;;;1.37;85.80
19795;BME280;10057;59.402;17.866;2023-03-21T08:23:03;101087.59;;;1.40;85.43
19795;BME280;10057;59.402;17.866;2023-03-21T08:25:30;101088.50;;;1.44;85.88
19795;BME280;10057;59.402;17.866;2023-03-21T08:27:57;101085.91;;;1.47;85.59
19795;BME280;10057;59.402;17.866;2023-03-21T08:30:26;101082.41;;;1.50;85.49
19795;BME280;10057;59.402;17.866;2023-03-21T08:32:57;101077.16;;;1.50;85.41
19795;BME280;10057;59.402;17.866;2023-03-21T08:35:28;101076.31;;;1.49;85.81
19795;BME280;10057;59.402;17.866;2023-03-21T08:37:55;101082.41;;;1.50;85.45
19795;BME280;10057;59.402;17.866;2023-03-21T08:40:21;101074.56;;;1.53;85.79
19795;BME280;10057;59.402;17.866;2023-03-21T08:42:48;101085.06;;;1.56;85.72
19795;BME280;10057;59.402;17.866;2023-03-21T08:45:16;101081.59;;;1.63;86.11
19795;BME280;10057;59.402;17.866;2023-03-21T08:47:43;101077.28;;;1.70;85.73
19795;BME280;10057;59.402;17.866;2023-03-21T08:50:13;101074.72;;;1.82;86.50
19795;BME280;10057;59.402;17.866;2023-03-21T08:52:41;101073.03;;;2.01;86.24
19795;BME280;10057;59.402;17.866;2023-03-21T08:55:08;101074.84;;;2.16;86.79
19795;BME280;10057;59.402;17.866;2023-03-21T08:57:35;101072.25;;;2.26;86.74
19795;BME280;10057;59.402;17.866;2023-03-21T09:00:04;101072.25;;;2.38;86.82
19795;BME280;10057;59.402;17.866;2023-03-21T09:02:41;101078.41;;;2.57;86.59
19795;BME280;10057;59.402;17.866;2023-03-21T09:05:09;101073.13;;;2.67;86.40
19795;BME280;10057;59.402;17.866;2023-03-21T09:07:38;101069.66;;;2.80;86.40
19795;BME280;10057;59.402;17.866;2023-03-21T09:10:07;101075.78;;;2.93;86.53
19795;BME280;10057;59.402;17.866;2023-03-21T09:12:48;101073.13;;;3.13;87.30
19795;BME280;10057;59.402;17.866;2023-03-21T09:15:15;101078.38;;;3.22;86.98
19795;BME280;10057;59.402;17.866;2023-03-21T09:17:43;101075.75;;;3.26;87.30
19795;BME280;10057;59.402;17.866;2023-03-21T09:20:15;101065.25;;;3.29;87.39
19795;BME280;10057;59.402;17.866;2023-03-21T09:22:47;101066.09;;;3.39;87.43
19795;BME280;10057;59.402;17.866;2023-03-21T09:25:15;101066.91;;;3.58;87.62
19795;BME280;10057;59.402;17.866;2023-03-21T09:27:42;101061.63;;;3.70;87.23
19795;BME280;10057;59.402;17.866;2023-03-21T09:30:13;101058.13;;;3.70;86.66
19795;BME280;10057;59.402;17.866;2023-03-21T09:32:42;101059.84;;;3.72;86.42
19795;BME280;10057;59.402;17.866;2023-03-21T09:35:10;101067.69;;;3.78;85.98
19795;BME280;10057;59.402;17.866;2023-03-21T09:37:38;101054.53;;;3.86;85.98
19795;BME280;10057;59.402;17.866;2023-03-21T09:40:19;101057.16;;;3.94;85.31
19795;BME280;10057;59.402;17.866;2023-03-21T09:43:03;101057.09;;;4.00;84.45
19795;BME280;10057;59.402;17.866;2023-03-21T09:45:42;101054.44;;;4.08;84.90
19795;BME280;10057;59.402;17.866;2023-03-21T09:48:32;101052.59;;;4.25;84.28
19795;BME280;10057;59.402;17.866;2023-03-21T09:51:09;101059.53;;;4.34;83.80
19795;BME280;10057;59.402;17.866;2023-03-21T09:53:43;101057.75;;;4.39;83.77
19795;BME280;10057;59.402;17.866;2023-03-21T09:56:12;101050.66;;;4.50;83.57
19795;BME280;10057;59.402;17.866;2023-03-21T09:58:50;101063.72;;;4.62;83.54
19795;BME280;10057;59.402;17.866;2023-03-21T10:01:25;101058.38;;;4.71;82.89
19795;BME280;10057;59.402;17.866;2023-03-21T10:03:54;101067.91;;;4.86;82.69
19795;BME280;10057;59.402;17.866;2023-03-21T10:06:23;101064.31;;;4.95;81.96
19795;BME280;10057;59.402;17.866;2023-03-21T10:09:03;101061.66;;;4.98;81.75
19795;BME280;10057;59.402;17.866;2023-03-21T10:11:46;101058.13;;;5.04;80.97
19795;BME280;10057;59.402;17.866;2023-03-21T10:17:17;101049.25;;;5.14;80.71
19795;BME280;10057;59.402;17.866;2023-03-21T10:20:00;101050.06;;;5.20;79.97
19795;BME280;10057;59.402;17.866;2023-03-21T10:22:37;101049.19;;;5.18;79.34
19795;BME280;10057;59.402;17.866;2023-03-21T10:25:06;101051.81;;;5.18;78.49
19795;BME280;10057;59.402;17.866;2023-03-21T10:27:34;101047.41;;;5.22;78.58
19795;BME280;10057;59.402;17.866;2023-03-21T10:30:04;101046.41;;;5.34;79.24
19795;BME280;10057;59.402;17.866;2023-03-21T10:32:33;101040.13;;;5.45;78.73
19795;BME280;10057;59.402;17.866;2023-03-21T10:35:01;101039.13;;;5.57;78.33
19795;BME280;10057;59.402;17.866;2023-03-21T10:37:30;101042.50;;;5.68;78.77
19795;BME280;10057;59.402;17.866;2023-03-21T10:39:58;101031.75;;;5.84;78.61
19795;BME280;10057;59.402;17.866;2023-03-21T10:42:28;101029.88;;;5.97;78.03
19795;BME280;10057;59.402;17.866;2023-03-21T10:44:57;101028.00;;;6.05;77.05
19795;BME280;10057;59.402;17.866;2023-03-21T10:47:27;101032.25;;;6.15;77.12
19795;BME280;10057;59.402;17.866;2023-03-21T10:50:00;101024.22;;;6.26;76.58
19795;BME280;10057;59.402;17.866;2023-03-21T10:52:36;101019.63;;;6.35;76.97
19795;BME280;10057;59.402;17.866;2023-03-21T10:57:44;101015.75;;;6.61;75.95
19795;BME280;10057;59.402;17.866;2023-03-21T11:00:24;101026.13;;;6.70;75.37
19795;BME280;10057;59.402;17.866;2023-03-21T11:02:53;101019.81;;;6.79;75.41
19795;BME280;10057;59.402;17.866;2023-03-21T11:11:00;101018.31;;;7.15;73.23
19795;BME280;10057;59.402;17.866;2023-03-21T11:13:39;101008.63;;;7.16;73.26
19795;BME280;10057;59.402;17.866;2023-03-21T11:16:17;101007.53;;;7.26;73.54
19795;BME280;10057;59.402;17.866;2023-03-21T11:18:49;101000.41;;;7.31;72.76
19795;BME280;10057;59.402;17.866;2023-03-21T11:21:16;101004.91;;;7.26;72.32
19795;BME280;10057;59.402;17.866;2023-03-21T11:23:46;101001.41;;;7.24;72.07
19795;BME280;10057;59.402;17.866;2023-03-21T11:26:35;101005.88;;;7.22;71.70
19795;BME280;10057;59.402;17.866;2023-03-21T11:29:35;100994.47;;;7.20;72.01
19795;BME280;10057;59.402;17.866;2023-03-21T11:34:48;100996.28;;;7.16;70.90
19795;BME280;10057;59.402;17.866;2023-03-21T11:39:53;100984.81;;;7.19;71.07
19795;BME280;10057;59.402;17.866;2023-03-21T11:42:30;100989.97;;;7.25;70.60
19795;BME280;10057;59.402;17.866;2023-03-21T11:45:12;100995.16;;;7.29;70.26
19795;BME280;10057;59.402;17.866;2023-03-21T11:47:39;100995.91;;;7.36;70.83
19795;BME280;10057;59.402;17.866;2023-03-21T11:50:42;100992.19;;;7.46;70.09
19795;BME280;10057;59.402;17.866;2023-03-21T11:53:35;100993.03;;;7.47;70.19
19795;BME280;10057;59.402;17.866;2023-03-21T11:58:45;100983.22;;;7.53;70.02
19795;BME280;10057;59.402;17.866;2023-03-21T12:01:58;100984.78;;;7.64;70.40
19795;BME280;10057;59.402;17.866;2023-03-21T12:12:22;100983.13;;;7.59;69.37
19795;BME280;10057;59.402;17.866;2023-03-21T12:15:07;100975.09;;;7.64;70.08
19795;BME280;10057;59.402;17.866;2023-03-21T12:20:39;100971.38;;;7.73;69.71
19795;BME280;10057;59.402;17.866;2023-03-21T12:39:39;100961.44;;;7.84;68.40
19795;BME280;10057;59.402;17.866;2023-03-21T12:44:42;100964.28;;;7.75;67.73
19795;BME280;10057;59.402;17.866;2023-03-21T12:47:16;100970.44;;;7.75;67.65
19795;BME280;10057;59.402;17.866;2023-03-21T12:49:55;100972.13;;;7.79;67.80
19795;BME280;10057;59.402;17.866;2023-03-21T12:52:29;100970.50;;;7.72;67.65
19795;BME280;10057;59.402;17.866;2023-03-21T12:55:02;100968.94;;;7.64;66.57
19795;BME280;10057;59.402;17.866;2023-03-21T12:57:36;100963.97;;;7.48;66.12
19795;BME280;10057;59.402;17.866;2023-03-21T13:00:18;100961.44;;;7.44;66.81
19795;BME280;10057;59.402;17.866;2023-03-21T13:02:52;100954.31;;;7.47;67.17
19795;BME280;10057;59.402;17.866;2023-03-21T13:08:02;100946.22;;;7.56;66.64
19795;BME280;10057;59.402;17.866;2023-03-21T13:10:30;100942.66;;;7.57;66.82
19795;BME280;10057;59.402;17.866;2023-03-21T13:15:46;100923.13;;;7.65;66.23
19795;BME280;10057;59.402;17.866;2023-03-21T13:20:56;100918.91;;;7.57;66.11
19795;BME280;10057;59.402;17.866;2023-03-21T13:23:25;100928.53;;;7.60;65.86
19795;BME280;10057;59.402;17.866;2023-03-21T13:25:58;100920.69;;;7.55;66.17
19795;BME280;10057;59.402;17.866;2023-03-21T13:28:27;100918.84;;;7.60;66.40
19795;BME280;10057;59.402;17.866;2023-03-21T13:31:17;100925.75;;;7.66;66.21
19795;BME280;10057;59.402;17.866;2023-03-21T13:33:49;100920.50;;;7.65;66.85
19795;BME280;10057;59.402;17.866;2023-03-21T13:36:28;100924.00;;;7.65;65.52
19795;BME280;10057;59.402;17.866;2023-03-21T13:39:00;100928.53;;;7.58;65.34
19795;BME280;10057;59.402;17.866;2023-03-21T13:41:39;100923.41;;;7.52;65.47
19795;BME280;10057;59.402;17.866;2023-03-21T13:46:52;100921.41;;;7.62;65.60
19795;BME280;10057;59.402;17.866;2023-03-21T13:49:32;100922.28;;;7.64;65.83
19795;BME280;10057;59.402;17.866;2023-03-21T13:54:55;100906.31;;;7.69;65.69
19795;BME280;10057;59.402;17.866;2023-03-21T14:00:26;100895.13;;;7.59;65.55
19795;BME280;10057;59.402;17.866;2023-03-21T14:02:59;100889.72;;;7.64;65.82
19795;BME280;10057;59.402;17.866;2023-03-21T14:05:27;100889.72;;;7.64;65.47
19795;BME280;10057;59.402;17.866;2023-03-21T14:07:57;100900.22;;;7.67;65.53
19795;BME280;10057;59.402;17.866;2023-03-21T14:10:50;100899.38;;;7.65;65.24
19795;BME280;10057;59.402;17.866;2023-03-21T14:13:22;100896.84;;;7.58;65.41
19795;BME280;10057;59.402;17.866;2023-03-21T14:15:53;100896.91;;;7.55;65.58
19795;BME280;10057;59.402;17.866;2023-03-21T14:18:24;100891.63;;;7.55;65.50
19795;BME280;10057;59.402;17.866;2023-03-21T14:21:19;100886.38;;;7.55;65.59
19795;BME280;10057;59.402;17.866;2023-03-21T14:24:09;100876.78;;;7.51;65.58
19795;BME280;10057;59.402;17.866;2023-03-21T14:26:47;100884.63;;;7.54;65.37
19795;BME280;10057;59.402;17.866;2023-03-21T14:29:25;100877.81;;;7.44;64.62
19795;BME280;10057;59.402;17.866;2023-03-21T14:31:57;100875.47;;;7.30;64.53
19795;BME280;10057;59.402;17.866;2023-03-21T14:34:27;100877.38;;;7.24;64.99
19795;BME280;10057;59.402;17.866;2023-03-21T14:36:55;100868.66;;;7.20;65.18